Time;durP1;ratioP1;P1;durP2;ratioP2;P2;SDS_P1;SDS_P2;PMS_P1;PMS_P2;Temp;Humidity;BMP_temperature;BMP_pressure;BME280_temperature;BME280_humidity;BME280_pressure;Samples;Min_cycle;Max_cycle;Signal;HPM_P1;HPM_P2
2023/04/11 00:02:05;;;;;;;6.60;6.50;;;21.40;53.20;;;;;;5074091;28;20856;-64
2023/04/11 00:04:32;;;;;;;6.57;6.37;;;21.40;53.30;;;;;;5074038;28;20447;-66
2023/04/11 00:06:59;;;;;;;6.67;6.57;;;21.40;53.30;;;;;;5074010;28;20451;-64
2023/04/11 00:09:26;;;;;;;6.43;6.33;;;21.40;53.30;;;;;;5079052;28;20588;-65
2023/04/11 00:11:53;;;;;;;6.60;6.43;;;21.40;53.40;;;;;;5094225;28;20474;-64
2023/04/11 00:14:20;;;;;;;6.90;6.70;;;21.40;53.40;;;;;;5094102;28;20441;-64
2023/04/11 00:16:48;;;;;;;6.30;6.20;;;21.40;53.40;;;;;;5092813;28;20473;-64
2023/04/11 00:19:16;;;;;;;6.30;6.20;;;21.40;53.50;;;;;;5094031;28;20442;-65
2023/04/11 00:21:44;;;;;;;6.70;6.60;;;21.40;53.50;;;;;;5094268;28;20543;-64
2023/04/11 00:24:10;;;;;;;7.00;6.80;;;21.40;53.50;;;;;;5089036;28;20456;-65
2023/04/11 00:26:37;;;;;;;7.30;7.20;;;21.40;53.50;;;;;;5093710;28;20553;-64
2023/04/11 00:29:04;;;;;;;6.70;6.60;;;21.40;53.50;;;;;;5094104;28;20443;-65
2023/04/11 00:31:31;;;;;;;6.97;6.87;;;21.30;53.50;;;;;;5093906;28;20481;-65
2023/04/11 00:33:58;;;;;;;7.00;6.80;;;21.40;53.50;;;;;;5093543;28;20573;-65
2023/04/11 00:36:26;;;;;;;7.10;7.00;;;21.40;53.60;;;;;;5073553;28;20540;-65
2023/04/11 00:38:54;;;;;;;6.90;6.80;;;21.30;53.50;;;;;;5073558;28;20807;-65
2023/04/11 00:41:21;;;;;;;6.70;6.60;;;21.30;53.50;;;;;;5073514;28;20439;-64
2023/04/11 00:43:48;;;;;;;6.80;6.70;;;21.40;53.60;;;;;;5073444;28;20923;-64
2023/04/11 00:46:16;;;;;;;6.90;6.80;;;21.30;53.60;;;;;;5073351;28;20471;-63
2023/04/11 00:48:44;;;;;;;7.57;7.10;;;21.30;53.60;;;;;;5078948;28;20446;-62
2023/04/11 00:51:11;;;;;;;6.80;6.70;;;21.30;53.60;;;;;;5093676;28;20885;-62
2023/04/11 00:53:39;;;;;;;6.90;6.80;;;21.30;53.60;;;;;;5093475;28;20521;-63
2023/04/11 00:56:07;;;;;;;8.23;8.03;;;21.30;53.60;;;;;;5093302;28;20501;-62
2023/04/11 00:58:36;;;;;;;6.93;6.83;;;21.30;53.60;;;;;;5074394;28;20475;-65
2023/04/11 01:01:07;;;;;;;7.23;7.13;;;21.30;53.60;;;;;;5073064;28;20447;-65
2023/04/11 01:03:34;;;;;;;6.90;6.80;;;21.30;53.70;;;;;;5076997;28;20970;-64
2023/04/11 01:06:02;;;;;;;7.30;7.10;;;21.30;53.70;;;;;;5072923;28;20475;-64
2023/04/11 01:08:29;;;;;;;7.20;7.10;;;21.30;53.70;;;;;;5072783;28;20482;-65
2023/04/11 01:10:58;;;;;;;6.83;6.73;;;21.20;53.60;;;;;;5072923;28;20475;-62
2023/04/11 01:13:25;;;;;;;6.90;6.80;;;21.30;53.70;;;;;;5072911;28;20919;-63
2023/04/11 01:15:52;;;;;;;7.20;7.00;;;21.20;53.70;;;;;;5073168;28;20891;-63
2023/04/11 01:18:19;;;;;;;6.90;6.80;;;21.20;53.60;;;;;;5091139;28;20474;-63
2023/04/11 01:20:46;;;;;;;7.50;7.30;;;21.20;53.60;;;;;;5097684;28;20459;-63
2023/04/11 01:23:14;;;;;;;7.40;7.10;;;21.20;53.70;;;;;;5097906;28;20466;-62
2023/04/11 01:25:43;;;;;;;6.70;6.60;;;21.20;53.70;;;;;;5102267;28;20489;-63
2023/04/11 01:28:09;;;;;;;6.60;6.50;;;21.20;53.70;;;;;;5111578;28;20443;-63
2023/04/11 01:30:36;;;;;;;6.93;6.83;;;21.20;53.70;;;;;;5107556;28;20443;-63
2023/04/11 01:33:03;;;;;;;6.83;6.73;;;21.20;53.70;;;;;;5111768;28;20477;-63
2023/04/11 01:35:30;;;;;;;6.97;6.77;;;21.20;53.70;;;;;;5106322;28;20477;-62
2023/04/11 01:37:57;;;;;;;6.80;6.70;;;21.20;53.70;;;;;;5092499;28;20478;-63
2023/04/11 01:40:24;;;;;;;7.23;7.13;;;21.20;53.70;;;;;;5092577;28;20491;-62
2023/04/11 01:42:53;;;;;;;7.30;7.10;;;21.20;53.70;;;;;;5092660;28;20466;-63
2023/04/11 01:45:20;;;;;;;7.17;6.97;;;21.20;53.70;;;;;;5079795;28;20577;-64
2023/04/11 01:47:47;;;;;;;7.77;7.57;;;21.20;53.70;;;;;;5079249;28;20478;-65
2023/04/11 01:50:14;;;;;;;7.57;7.30;;;21.20;53.70;;;;;;5092427;28;20853;-64
2023/04/11 01:52:41;;;;;;;7.00;6.90;;;21.20;53.70;;;;;;5092353;28;20501;-65
2023/04/11 01:55:09;;;;;;;7.27;7.17;;;21.20;53.70;;;;;;5092106;28;20493;-65
2023/04/11 01:57:35;;;;;;;7.40;7.20;;;21.20;53.70;;;;;;5092133;28;20477;-65
2023/04/11 02:00:07;;;;;;;6.90;6.80;;;21.20;53.80;;;;;;5073686;28;20962;-64
2023/04/11 02:02:34;;;;;;;6.70;6.60;;;21.20;53.80;;;;;;5071949;28;20810;-63
2023/04/11 02:05:01;;;;;;;6.70;6.50;;;21.20;53.80;;;;;;5071811;28;20498;-64
2023/04/11 02:07:28;;;;;;;6.80;6.47;;;21.20;53.80;;;;;;5081890;28;20572;-64
2023/04/11 02:09:55;;;;;;;6.60;6.40;;;21.20;53.80;;;;;;5092232;28;20470;-64
2023/04/11 02:12:22;;;;;;;6.53;6.33;;;21.20;53.80;;;;;;5086927;28;20489;-64
2023/04/11 02:14:48;;;;;;;6.60;6.50;;;21.20;53.80;;;;;;5080082;28;20508;-64
2023/04/11 02:17:19;;;;;;;7.40;7.20;;;21.20;53.80;;;;;;5091749;28;20528;-64
2023/04/11 02:19:46;;;;;;;7.63;7.53;;;21.10;53.80;;;;;;5092162;28;20446;-62
2023/04/11 02:22:13;;;;;;;7.17;7.07;;;21.20;53.90;;;;;;5091719;28;20851;-62
2023/04/11 02:24:40;;;;;;;7.07;6.87;;;21.10;53.80;;;;;;5091802;28;20486;-62
2023/04/11 02:27:07;;;;;;;7.00;6.90;;;21.10;53.80;;;;;;5091691;28;20470;-62
2023/04/11 02:29:35;;;;;;;7.30;7.10;;;21.10;53.90;;;;;;5091772;28;20470;-63
2023/04/11 02:32:01;;;;;;;6.50;6.40;;;21.10;53.90;;;;;;5091715;28;20495;-62
2023/04/11 02:34:30;;;;;;;6.40;6.30;;;21.10;54.00;;;;;;5081269;28;20557;-63
2023/04/11 02:36:57;;;;;;;6.63;6.53;;;21.10;53.90;;;;;;5071328;28;20447;-63
2023/04/11 02:39:25;;;;;;;7.70;7.07;;;21.10;53.90;;;;;;5070856;28;20531;-63
2023/04/11 02:41:52;;;;;;;6.87;6.73;;;21.10;54.00;;;;;;5073449;28;20450;-63
2023/04/11 02:44:21;;;;;;;6.53;6.43;;;21.10;54.00;;;;;;5091685;28;20523;-63
2023/04/11 02:46:48;;;;;;;6.60;6.50;;;21.10;54.00;;;;;;5091494;28;20442;-63
2023/04/11 02:49:15;;;;;;;6.63;6.50;;;21.10;54.50;;;;;;5076098;28;20497;-63
2023/04/11 02:51:43;;;;;;;7.40;7.20;;;21.10;54.00;;;;;;5071346;28;20470;-63
2023/04/11 02:54:10;;;;;;;6.50;6.40;;;21.10;53.90;;;;;;5071225;28;20918;-63
2023/04/11 02:56:37;;;;;;;6.90;6.80;;;21.10;53.90;;;;;;5071309;28;20478;-63
2023/04/11 02:59:05;;;;;;;7.10;6.90;;;21.10;53.80;;;;;;5071361;28;20443;-63
2023/04/11 03:01:32;;;;;;;7.40;7.20;;;21.10;53.80;;;;;;5071595;28;20447;-63
2023/04/11 03:03:59;;;;;;;7.67;7.37;;;21.10;53.80;;;;;;5090095;28;20438;-63
2023/04/11 03:06:27;;;;;;;7.00;6.90;;;21.10;53.80;;;;;;5091562;28;20725;-63
2023/04/11 03:08:55;;;;;;;7.20;7.10;;;21.10;53.80;;;;;;5091385;28;20446;-63
2023/04/11 03:11:22;;;;;;;7.90;7.60;;;21.10;53.90;;;;;;5080426;28;20443;-63
2023/04/11 03:13:49;;;;;;;7.20;7.10;;;21.10;53.90;;;;;;5071278;28;20566;-63
2023/04/11 03:16:16;;;;;;;7.47;7.27;;;21.10;53.90;;;;;;5070257;28;20530;-63
2023/04/11 03:18:43;;;;;;;7.37;7.27;;;21.10;53.90;;;;;;5070941;28;20474;-63
2023/04/11 03:21:10;;;;;;;7.80;7.60;;;21.10;53.80;;;;;;5071297;28;20493;-63
2023/04/11 03:23:37;;;;;;;7.43;7.03;;;21.10;53.80;;;;;;5071161;28;20452;-63
2023/04/11 03:26:06;;;;;;;6.30;6.20;;;21.10;53.80;;;;;;5071188;28;20459;-65
2023/04/11 03:28:33;;;;;;;7.03;6.83;;;21.10;53.90;;;;;;5070999;28;20478;-65
2023/04/11 03:31:00;;;;;;;6.73;6.53;;;21.10;53.90;;;;;;5070289;28;20498;-65
2023/04/11 03:33:27;;;;;;;7.20;6.90;;;21.00;53.80;;;;;;5071225;28;20510;-65
2023/04/11 03:35:54;;;;;;;6.80;6.70;;;21.00;53.80;;;;;;5070887;28;20562;-65
2023/04/11 03:38:21;;;;;;;6.90;6.80;;;21.00;53.80;;;;;;5070830;28;20985;-65
2023/04/11 03:40:48;;;;;;;6.90;6.70;;;21.00;53.90;;;;;;5070979;28;20471;-65
2023/04/11 03:43:16;;;;;;;6.47;6.37;;;21.00;53.90;;;;;;5071038;28;20474;-65
2023/04/11 03:45:43;;;;;;;6.83;6.70;;;21.00;53.90;;;;;;5086608;28;20564;-65
2023/04/11 03:48:10;;;;;;;7.30;7.10;;;21.00;53.80;;;;;;5091055;28;20480;-65
2023/04/11 03:50:37;;;;;;;7.13;6.90;;;21.00;53.90;;;;;;5092663;28;20541;-65
2023/04/11 03:53:04;;;;;;;6.60;6.50;;;21.00;53.90;;;;;;5094695;28;20474;-65
2023/04/11 03:55:31;;;;;;;6.67;6.40;;;21.00;53.90;;;;;;5094772;28;20554;-65
2023/04/11 03:57:58;;;;;;;6.83;6.53;;;21.00;53.80;;;;;;5090346;28;20483;-65
2023/04/11 04:00:27;;;;;;;6.63;6.53;;;21.00;53.90;;;;;;5074570;28;20475;-65
2023/04/11 04:02:54;;;;;;;7.40;7.20;;;21.00;53.90;;;;;;5074512;28;20486;-65
2023/04/11 04:05:21;;;;;;;6.97;6.77;;;21.00;53.90;;;;;;5074253;28;20985;-65
2023/04/11 04:07:48;;;;;;;7.00;6.70;;;21.00;54.00;;;;;;5074038;28;20540;-65
2023/04/11 04:10:14;;;;;;;7.27;7.00;;;21.00;53.90;;;;;;5074205;28;20486;-65
2023/04/11 04:12:41;;;;;;;6.73;6.60;;;21.00;53.90;;;;;;5081105;28;20893;-65
2023/04/11 04:15:10;;;;;;;6.70;6.50;;;21.00;53.90;;;;;;5094068;28;20514;-65
2023/04/11 04:17:38;;;;;;;7.03;6.83;;;21.00;53.90;;;;;;5094165;28;20442;-64
2023/04/11 04:20:08;;;;;;;6.57;6.37;;;21.00;53.90;;;;;;5094169;28;20877;-65
2023/04/11 04:22:36;;;;;;;6.73;6.43;;;21.00;53.90;;;;;;5073960;28;20530;-67
2023/04/11 04:25:03;;;;;;;6.93;6.63;;;21.00;53.90;;;;;;5073713;28;20542;-66
2023/04/11 04:27:31;;;;;;;7.60;7.07;;;21.00;53.90;;;;;;5085744;28;20941;-67
2023/04/11 04:29:58;;;;;;;7.13;6.93;;;21.00;54.10;;;;;;5093911;28;20548;-67
2023/04/11 04:32:27;;;;;;;7.30;7.10;;;21.00;54.10;;;;;;5093897;28;20466;-65
2023/04/11 04:34:56;;;;;;;7.43;7.20;;;21.00;54.10;;;;;;5093797;28;20505;-66
2023/04/11 04:37:24;;;;;;;7.10;6.90;;;21.00;54.20;;;;;;5093563;28;20450;-66
2023/04/11 04:39:52;;;;;;;7.53;7.13;;;21.00;54.20;;;;;;5093451;28;20481;-67
2023/04/11 04:42:21;;;;;;;6.93;6.83;;;21.00;54.20;;;;;;5053455;28;21005;-66
2023/04/11 04:44:48;;;;;;;6.80;6.70;;;21.00;54.30;;;;;;5053346;28;20894;-67
2023/04/11 04:47:15;;;;;;;7.10;6.90;;;21.00;54.20;;;;;;5053230;28;20966;-66
2023/04/11 04:49:42;;;;;;;7.60;7.40;;;21.00;54.20;;;;;;5078356;28;20992;-67
2023/04/11 04:52:11;;;;;;;7.50;7.10;;;21.00;54.30;;;;;;5093582;28;20563;-66
2023/04/11 04:54:38;;;;;;;7.77;7.40;;;21.10;54.30;;;;;;5085998;28;20582;-66
2023/04/11 04:57:05;;;;;;;8.50;8.30;;;21.10;54.30;;;;;;5072989;28;20443;-67
2023/04/11 04:59:32;;;;;;;7.13;7.03;;;21.10;54.30;;;;;;5073145;28;20471;-66
2023/04/11 05:01:59;;;;;;;9.57;9.27;;;21.10;54.30;;;;;;5072504;28;20894;-65
2023/04/11 05:04:26;;;;;;;7.27;7.07;;;21.10;54.20;;;;;;5072917;28;20474;-67
2023/04/11 05:06:53;;;;;;;7.70;7.40;;;21.10;54.20;;;;;;5072898;28;21183;-66
2023/04/11 05:09:21;;;;;;;8.20;7.70;;;21.20;54.20;;;;;;5086457;28;20470;-66
2023/04/11 05:11:49;;;;;;;8.97;8.50;;;21.20;54.30;;;;;;5093157;28;20526;-67
2023/04/11 05:14:16;;;;;;;14.67;11.40;;;21.20;54.50;;;;;;5092954;28;20481;-66
2023/04/11 05:16:43;;;;;;;11.37;10.27;;;21.20;55.30;;;;;;5092833;28;20442;-66
2023/04/11 05:19:10;;;;;;;10.63;9.60;;;21.20;57.60;;;;;;5093028;28;20470;-66
2023/04/11 05:21:38;;;;;;;10.47;9.20;;;21.20;57.90;;;;;;5084181;28;20479;-66
2023/04/11 05:24:05;;;;;;;10.17;9.43;;;21.20;58.10;;;;;;5073671;28;20536;-67
2023/04/11 05:26:33;;;;;;;10.20;9.20;;;21.30;59.20;;;;;;5084957;28;20494;-68
2023/04/11 05:29:01;;;;;;;12.70;10.10;;;21.30;59.20;;;;;;5092681;28;20450;-68
2023/04/11 05:31:28;;;;;;;10.20;9.60;;;21.40;59.50;;;;;;5092680;28;20478;-68
2023/04/11 05:33:56;;;;;;;9.80;9.20;;;21.40;59.40;;;;;;5092538;28;20565;-68
2023/04/11 05:36:23;;;;;;;10.57;9.53;;;21.50;59.00;;;;;;5134574;22;20517;-65
2023/04/11 05:38:50;;;;;;;11.00;10.03;;;21.50;58.50;;;;;;5092353;28;20486;-64
2023/04/11 05:41:17;;;;;;;9.77;9.07;;;21.50;58.10;;;;;;5092481;28;20450;-65
2023/04/11 05:43:45;;;;;;;9.93;9.20;;;21.50;57.80;;;;;;5092485;28;20971;-66
2023/04/11 05:46:12;;;;;;;10.77;9.60;;;21.50;57.50;;;;;;5092310;28;20490;-63
2023/04/11 05:48:40;;;;;;;9.63;8.73;;;21.50;57.10;;;;;;5092156;28;20929;-65
2023/04/11 05:51:07;;;;;;;10.00;9.27;;;21.60;57.00;;;;;;5092391;28;20477;-65
2023/04/11 05:53:34;;;;;;;8.73;8.03;;;21.60;56.70;;;;;;5092291;28;20537;-65
2023/04/11 05:56:01;;;;;;;9.60;8.70;;;21.60;56.40;;;;;;5092077;28;20553;-64
2023/04/11 05:58:29;;;;;;;9.73;8.93;;;21.60;56.20;;;;;;5091968;28;20477;-65
2023/04/11 06:00:58;;;;;;;10.13;9.43;;;21.60;56.00;;;;;;5092366;28;20438;-65
2023/04/11 06:03:25;;;;;;;9.67;8.87;;;21.60;55.80;;;;;;5092060;28;20443;-65
2023/04/11 06:05:52;;;;;;;9.00;8.40;;;21.60;55.60;;;;;;5092075;28;20473;-65
2023/04/11 06:08:20;;;;;;;10.97;10.13;;;21.60;55.40;;;;;;5091702;28;20448;-64
2023/04/11 06:10:47;;;;;;;9.33;8.73;;;21.60;55.20;;;;;;5091929;28;20449;-63
2023/04/11 06:13:14;;;;;;;8.97;8.47;;;21.60;55.00;;;;;;5091574;28;20534;-65
2023/04/11 06:15:41;;;;;;;8.23;7.93;;;21.60;54.80;;;;;;5091396;28;20569;-65
2023/04/11 06:18:09;;;;;;;8.70;8.20;;;21.60;54.70;;;;;;5091797;28;20842;-65
2023/04/11 06:20:36;;;;;;;9.00;8.50;;;21.60;54.60;;;;;;5091949;28;20485;-65
2023/04/11 06:23:02;;;;;;;8.47;8.10;;;21.60;54.50;;;;;;5091828;28;20530;-65
2023/04/11 06:25:30;;;;;;;9.97;8.73;;;21.60;54.30;;;;;;5091612;28;20492;-64
2023/04/11 06:27:56;;;;;;;9.23;8.57;;;21.60;54.20;;;;;;5091652;28;20855;-65
2023/04/11 06:30:23;;;;;;;9.53;8.70;;;21.60;54.10;;;;;;5091817;28;20474;-64
2023/04/11 06:32:51;;;;;;;8.43;8.10;;;21.60;54.00;;;;;;5091712;28;20481;-65
2023/04/11 06:35:23;;;;;;;9.73;9.00;;;21.60;53.90;;;;;;5091512;28;20907;-65
2023/04/11 06:37:50;;;;;;;8.97;8.57;;;21.60;53.80;;;;;;5091494;28;20948;-64
2023/04/11 06:40:18;;;;;;;9.07;8.60;;;21.60;53.70;;;;;;5091783;28;20474;-65
2023/04/11 06:42:45;;;;;;;9.23;8.77;;;21.60;53.60;;;;;;5091848;28;20817;-65
2023/04/11 06:45:13;;;;;;;10.30;9.80;;;21.60;53.50;;;;;;5091817;28;20463;-65
2023/04/11 06:47:40;;;;;;;8.80;8.60;;;21.60;53.40;;;;;;5091369;28;20474;-65
2023/04/11 06:50:08;;;;;;;9.00;8.53;;;21.60;53.30;;;;;;5091776;28;20478;-65
2023/04/11 06:52:36;;;;;;;8.90;8.50;;;21.60;53.20;;;;;;5091515;28;20486;-65
2023/04/11 06:55:05;;;;;;;9.50;8.93;;;21.60;53.10;;;;;;5091424;28;20914;-66
2023/04/11 06:57:32;;;;;;;8.87;8.57;;;21.60;53.10;;;;;;5091471;28;20805;-66
2023/04/11 06:59:59;;;;;;;9.23;8.73;;;21.60;53.00;;;;;;5091504;28;20474;-66
2023/04/11 07:02:26;;;;;;;9.30;8.90;;;21.60;53.00;;;;;;5091601;28;20476;-65
2023/04/11 07:04:53;;;;;;;9.37;9.03;;;21.50;52.80;;;;;;5091445;28;20485;-65
2023/04/11 07:07:20;;;;;;;9.67;9.00;;;21.50;52.80;;;;;;5091215;28;20533;-65
2023/04/11 07:09:48;;;;;;;9.37;9.07;;;21.50;52.70;;;;;;5091406;28;20870;-64
2023/04/11 07:12:15;;;;;;;9.20;8.80;;;21.50;52.70;;;;;;5091504;28;20480;-65
2023/04/11 07:14:42;;;;;;;9.50;8.90;;;21.50;52.60;;;;;;5091342;28;20566;-65
2023/04/11 07:17:09;;;;;;;9.40;9.10;;;21.50;52.60;;;;;;5091242;28;20508;-64
2023/04/11 07:19:35;;;;;;;9.73;9.23;;;21.50;52.50;;;;;;5091291;28;20534;-65
2023/04/11 07:22:03;;;;;;;8.90;8.63;;;21.50;52.50;;;;;;5091483;28;20888;-65
2023/04/11 07:24:30;;;;;;;9.03;8.70;;;21.40;52.40;;;;;;5091481;28;20503;-65
2023/04/11 07:27:00;;;;;;;9.00;8.70;;;21.40;52.30;;;;;;5094991;28;20494;-64
2023/04/11 07:29:27;;;;;;;9.30;8.90;;;21.40;52.30;;;;;;5095163;28;21015;-65
2023/04/11 07:31:54;;;;;;;9.20;8.80;;;21.40;52.30;;;;;;5095319;28;20453;-65
2023/04/11 07:34:21;;;;;;;9.70;9.20;;;21.40;52.20;;;;;;5095377;28;20930;-65
2023/04/11 07:36:48;;;;;;;8.83;8.60;;;21.40;52.20;;;;;;5094940;28;20904;-65
2023/04/11 07:39:15;;;;;;;9.53;9.23;;;21.30;52.10;;;;;;5095472;28;20450;-65
2023/04/11 07:41:43;;;;;;;9.57;9.13;;;21.30;52.10;;;;;;5095196;28;20473;-65
2023/04/11 07:44:11;;;;;;;9.20;8.80;;;21.30;52.10;;;;;;5094983;28;20580;-65
2023/04/11 07:46:38;;;;;;;9.20;8.90;;;21.30;52.00;;;;;;5094692;28;20501;-65
2023/04/11 07:49:05;;;;;;;8.70;8.30;;;21.30;52.00;;;;;;5094765;28;20530;-63
2023/04/11 07:51:32;;;;;;;9.33;8.80;;;21.30;52.00;;;;;;5094896;28;20450;-65
2023/04/11 07:53:59;;;;;;;9.37;9.07;;;21.30;52.00;;;;;;5094786;28;20438;-65
2023/04/11 07:56:26;;;;;;;8.97;8.67;;;21.30;51.90;;;;;;5094559;28;21006;-65
2023/04/11 07:58:54;;;;;;;9.27;8.90;;;21.30;51.90;;;;;;5094519;28;20515;-63
2023/04/11 08:01:23;;;;;;;9.73;9.13;;;21.30;51.90;;;;;;5094516;28;20486;-66
2023/04/11 08:03:51;;;;;;;8.83;8.53;;;21.30;51.90;;;;;;5094620;28;20447;-65
2023/04/11 08:06:18;;;;;;;9.20;8.80;;;21.20;51.80;;;;;;5094316;28;21011;-64
2023/04/11 08:08:46;;;;;;;8.97;8.57;;;21.20;51.70;;;;;;5094164;28;20529;-64
2023/04/11 08:11:13;;;;;;;8.67;8.27;;;21.20;51.70;;;;;;5094533;28;20478;-65
2023/04/11 08:13:40;;;;;;;8.97;8.70;;;21.20;51.70;;;;;;5094581;28;20469;-65
2023/04/11 08:16:08;;;;;;;9.03;8.83;;;21.20;51.70;;;;;;5094260;28;20921;-64
2023/04/11 08:18:40;;;;;;;9.20;8.90;;;21.20;51.70;;;;;;5094337;28;20489;-65
2023/04/11 08:21:09;;;;;;;9.40;8.80;;;21.20;51.70;;;;;;5094523;28;20546;-64
2023/04/11 08:23:36;;;;;;;8.67;8.37;;;21.20;51.60;;;;;;5094696;28;20486;-65
2023/04/11 08:26:03;;;;;;;9.20;8.90;;;21.20;51.60;;;;;;5094462;28;20987;-65
2023/04/11 08:28:30;;;;;;;9.30;9.00;;;21.20;51.60;;;;;;5094109;28;20474;-65
2023/04/11 08:30:57;;;;;;;8.90;8.53;;;21.10;51.60;;;;;;5094281;28;20466;-64
2023/04/11 08:33:24;;;;;;;8.83;8.63;;;21.10;51.50;;;;;;5094330;28;20842;-65
2023/04/11 08:35:53;;;;;;;8.57;8.37;;;21.10;51.50;;;;;;5094313;28;20490;-65
2023/04/11 08:38:20;;;;;;;8.63;8.43;;;21.10;51.50;;;;;;5093694;28;20866;-65
2023/04/11 08:40:47;;;;;;;10.80;10.30;;;21.10;51.50;;;;;;5095278;28;20481;-65
2023/04/11 08:43:14;;;;;;;8.73;8.43;;;21.10;51.50;;;;;;5098068;28;20477;-67
2023/04/11 08:45:41;;;;;;;9.27;8.97;;;21.00;51.40;;;;;;5093950;28;20546;-65
2023/04/11 08:48:10;;;;;;;8.90;8.70;;;21.00;51.40;;;;;;5093662;28;20496;-66
2023/04/11 08:50:39;;;;;;;8.97;8.77;;;21.00;51.40;;;;;;5094024;28;20447;-65
2023/04/11 08:53:08;;;;;;;8.77;8.43;;;21.00;51.40;;;;;;5094461;28;20453;-65
2023/04/11 08:55:35;;;;;;;9.20;8.90;;;21.00;51.40;;;;;;5093553;28;20581;-65
2023/04/11 08:58:02;;;;;;;9.27;8.97;;;21.00;51.40;;;;;;5093252;28;20534;-65
2023/04/11 09:00:31;;;;;;;9.00;8.70;;;21.00;51.40;;;;;;5093570;28;20450;-64
2023/04/11 09:02:59;;;;;;;8.50;8.30;;;21.00;51.40;;;;;;5093636;28;20998;-65
2023/04/11 09:05:28;;;;;;;8.63;8.43;;;21.00;51.40;;;;;;5093423;28;20490;-65
2023/04/11 09:07:55;;;;;;;8.60;8.40;;;20.90;51.30;;;;;;5093475;28;20976;-65
2023/04/11 09:10:25;;;;;;;10.13;9.83;;;20.90;51.80;;;;;;5093372;28;20454;-65
2023/04/11 09:12:52;;;;;;;8.30;8.10;;;20.90;51.20;;;;;;5093417;28;20915;-65
2023/04/11 09:15:21;;;;;;;8.87;8.57;;;20.90;51.70;;;;;;5093264;28;20517;-64
2023/04/11 09:17:48;;;;;;;9.30;9.03;;;20.90;51.20;;;;;;5092994;28;20517;-66
2023/04/11 09:20:19;;;;;;;8.77;8.57;;;20.90;51.10;;;;;;5093313;28;20449;-65
2023/04/11 09:22:49;;;;;;;8.90;8.60;;;20.90;51.10;;;;;;5093136;28;20453;-65
2023/04/11 09:25:16;;;;;;;8.80;8.50;;;20.90;51.10;;;;;;5093155;28;20500;-65
2023/04/11 09:27:44;;;;;;;9.00;8.70;;;20.90;51.10;;;;;;5092933;28;20572;-65
2023/04/11 09:30:22;;;;;;;8.90;8.60;;;20.80;51.00;;;;;;5093301;28;20446;-65
2023/04/11 09:32:51;;;;;;;9.00;8.80;;;20.80;51.00;;;;;;5092984;28;20525;-65
2023/04/11 09:35:21;;;;;;;9.30;8.90;;;20.80;51.00;;;;;;5092668;28;20493;-65
2023/04/11 09:37:50;;;;;;;8.67;8.43;;;20.90;51.10;;;;;;5092906;28;20446;-64
2023/04/11 09:40:19;;;;;;;8.37;8.17;;;20.80;51.00;;;;;;5092953;28;20870;-66
2023/04/11 09:42:48;;;;;;;8.73;8.43;;;20.80;51.00;;;;;;5092896;28;20457;-65
2023/04/11 09:45:18;;;;;;;9.30;9.00;;;20.80;51.00;;;;;;5092929;28;20501;-65
2023/04/11 09:47:45;;;;;;;8.80;8.60;;;20.80;51.00;;;;;;5092389;28;20452;-65
2023/04/11 09:50:12;;;;;;;8.63;8.43;;;20.80;51.00;;;;;;5092724;28;20809;-65
2023/04/11 09:52:41;;;;;;;8.60;8.40;;;20.80;51.00;;;;;;5092547;28;20489;-65
2023/04/11 09:55:11;;;;;;;9.10;8.90;;;20.80;50.90;;;;;;5092211;28;20507;-65
2023/04/11 09:57:44;;;;;;;8.90;8.70;;;20.80;50.90;;;;;;5092330;28;20446;-66
2023/04/11 10:00:15;;;;;;;8.87;8.67;;;20.80;50.80;;;;;;5092300;28;20449;-65
2023/04/11 10:02:43;;;;;;;9.50;9.20;;;20.80;50.80;;;;;;5092330;28;20529;-66
2023/04/11 10:05:12;;;;;;;8.70;8.50;;;20.80;50.70;;;;;;5092152;28;20860;-65
2023/04/11 10:07:46;;;;;;;8.80;8.60;;;20.80;50.80;;;;;;5092293;28;20482;-67
2023/04/11 10:10:21;;;;;;;8.63;8.43;;;20.80;50.70;;;;;;5092502;28;20473;-66
2023/04/11 10:12:49;;;;;;;8.70;8.50;;;20.70;50.60;;;;;;5092097;28;20524;-66
2023/04/11 10:15:18;;;;;;;9.00;8.70;;;20.70;50.60;;;;;;5092019;28;20541;-66
2023/04/11 10:18:10;;;;;;;9.30;9.10;;;20.70;50.50;;;;;;5091788;28;20481;-65
2023/04/11 10:20:49;;;;;;;9.10;8.90;;;20.70;50.50;;;;;;5092037;28;20530;-66
2023/04/11 10:23:16;;;;;;;8.90;8.70;;;20.80;50.60;;;;;;5092052;28;20438;-65
2023/04/11 10:25:59;;;;;;;8.90;8.70;;;20.70;50.50;;;;;;5093671;28;20489;-66
2023/04/11 10:28:37;;;;;;;9.20;9.00;;;20.70;50.50;;;;;;5099467;28;20983;-65
2023/04/11 10:31:08;;;;;;;9.27;8.70;;;20.70;50.50;;;;;;5092135;28;20533;-66
2023/04/11 10:33:37;;;;;;;9.00;8.80;;;20.60;50.30;;;;;;5091996;28;20439;-66
2023/04/11 10:36:08;;;;;;;9.57;9.37;;;20.70;50.40;;;;;;5091449;28;20543;-65
2023/04/11 10:38:48;;;;;;;9.77;9.57;;;20.70;50.30;;;;;;5091649;28;20515;-66
2023/04/11 10:41:30;;;;;;;9.60;9.40;;;20.70;50.30;;;;;;5091798;28;20466;-66
2023/04/11 10:44:19;;;;;;;8.90;8.70;;;20.60;50.20;;;;;;5091842;28;20450;-65
2023/04/11 10:46:52;;;;;;;9.70;9.40;;;20.60;50.10;;;;;;5086161;28;20481;-64
2023/04/11 10:49:33;;;;;;;9.10;8.80;;;20.60;50.10;;;;;;5091769;28;20449;-64
2023/04/11 10:52:20;;;;;;;9.07;8.87;;;20.60;50.10;;;;;;5091654;28;20481;-66
2023/04/11 10:54:47;;;;;;;10.00;9.80;;;20.60;50.10;;;;;;5091510;28;20492;-66
2023/04/11 10:57:15;;;;;;;9.37;9.00;;;20.60;50.60;;;;;;5091702;28;20916;-65
2023/04/11 11:00:00;;;;;;;9.23;8.90;;;20.60;50.10;;;;;;5091746;28;20994;-65
2023/04/11 11:02:43;;;;;;;8.83;8.63;;;20.50;50.00;;;;;;5095801;28;21008;-66
2023/04/11 11:05:21;;;;;;;8.60;8.40;;;20.60;50.10;;;;;;5092951;28;20474;-65
2023/04/11 11:07:49;;;;;;;8.60;8.40;;;20.60;50.10;;;;;;5095501;28;20438;-64
2023/04/11 11:10:16;;;;;;;9.20;8.90;;;20.50;50.00;;;;;;5095857;28;20445;-66
2023/04/11 11:12:53;;;;;;;8.80;8.60;;;20.50;49.90;;;;;;5095970;28;20516;-65
2023/04/11 11:15:20;;;;;;;9.80;9.53;;;20.60;50.00;;;;;;5095730;28;20976;-64
2023/04/11 11:17:49;;;;;;;8.93;8.70;;;20.60;50.00;;;;;;5095762;28;20543;-66
2023/04/11 11:20:18;;;;;;;9.60;9.40;;;20.50;49.90;;;;;;5096089;28;20489;-66
2023/04/11 11:22:58;;;;;;;9.57;9.17;;;20.50;49.90;;;;;;5095494;28;20453;-65
2023/04/11 11:25:26;;;;;;;9.10;8.90;;;20.50;49.90;;;;;;5095498;28;20470;-65
2023/04/11 11:28:02;;;;;;;8.50;8.30;;;20.50;49.90;;;;;;5095246;28;20453;-66
2023/04/11 11:30:29;;;;;;;8.43;8.23;;;20.50;49.90;;;;;;5095418;28;20492;-64
2023/04/11 11:32:57;;;;;;;8.83;8.63;;;20.50;49.90;;;;;;5095311;28;20978;-66
2023/04/11 11:35:25;;;;;;;8.40;8.20;;;20.50;49.90;;;;;;5095430;28;20509;-63
2023/04/11 11:37:53;;;;;;;8.63;8.33;;;20.50;49.90;;;;;;5094715;28;20482;-63
2023/04/11 11:40:21;;;;;;;9.00;8.70;;;20.50;49.90;;;;;;5095035;28;20478;-64
2023/04/11 11:42:50;;;;;;;8.70;8.50;;;20.50;49.90;;;;;;5094888;28;20442;-64
2023/04/11 11:45:18;;;;;;;8.90;8.70;;;20.50;50.40;;;;;;5094772;28;20489;-63
2023/04/11 11:47:46;;;;;;;9.20;9.00;;;20.50;49.90;;;;;;5094605;28;20517;-63
2023/04/11 11:50:26;;;;;;;9.70;9.50;;;20.50;49.90;;;;;;5094887;28;21012;-64
2023/04/11 11:52:53;;;;;;;8.60;8.40;;;20.50;49.80;;;;;;5094763;28;20529;-63
2023/04/11 11:55:32;;;;;;;8.63;8.43;;;20.50;49.80;;;;;;5094629;28;21044;-64
2023/04/11 11:58:01;;;;;;;8.70;8.50;;;20.50;49.90;;;;;;5094535;28;20446;-63
2023/04/11 12:00:29;;;;;;;8.90;8.70;;;20.50;49.80;;;;;;5094558;28;20945;-63
2023/04/11 12:02:58;;;;;;;8.73;8.53;;;20.50;49.70;;;;;;5094518;28;20446;-63
2023/04/11 12:05:31;;;;;;;8.80;8.60;;;20.50;49.70;;;;;;5094433;28;20470;-63
2023/04/11 12:08:00;;;;;;;8.70;8.50;;;20.50;49.70;;;;;;5094182;28;20450;-63
2023/04/11 12:10:35;;;;;;;9.60;9.30;;;20.50;49.70;;;;;;5094413;28;20547;-64
2023/04/11 12:13:02;;;;;;;8.77;8.57;;;20.50;49.70;;;;;;5094497;28;20529;-64
2023/04/11 12:15:29;;;;;;;9.00;8.63;;;20.50;49.80;;;;;;5094242;28;20892;-63
2023/04/11 12:17:56;;;;;;;8.67;8.47;;;20.50;49.80;;;;;;5093878;28;20638;-63
2023/04/11 12:20:23;;;;;;;8.47;8.30;;;20.50;49.80;;;;;;5094107;28;20529;-63
2023/04/11 12:22:51;;;;;;;9.20;9.00;;;20.50;49.70;;;;;;5094104;28;20500;-62
2023/04/11 12:25:18;;;;;;;8.40;8.20;;;20.50;49.70;;;;;;5094036;28;20542;-63
2023/04/11 12:27:46;;;;;;;8.80;8.60;;;20.50;49.70;;;;;;5093841;28;20960;-63
2023/04/11 12:30:14;;;;;;;8.30;8.10;;;20.50;49.70;;;;;;5093971;28;20529;-64
2023/04/11 12:32:42;;;;;;;8.50;8.30;;;20.50;49.70;;;;;;5093872;28;20449;-63
2023/04/11 12:35:10;;;;;;;8.70;8.50;;;20.50;49.70;;;;;;5093639;28;20505;-64
2023/04/11 12:37:37;;;;;;;8.60;8.40;;;20.50;49.70;;;;;;5093588;28;20489;-64
2023/04/11 12:40:09;;;;;;;8.87;8.67;;;20.50;49.80;;;;;;5093818;28;20817;-64
2023/04/11 12:42:37;;;;;;;9.07;8.37;;;20.50;49.80;;;;;;5093730;28;20504;-64
2023/04/11 12:45:06;;;;;;;8.03;7.93;;;20.50;49.80;;;;;;5093553;28;20463;-63
2023/04/11 12:47:33;;;;;;;8.30;8.10;;;20.50;49.80;;;;;;5093497;28;20483;-63
2023/04/11 12:50:00;;;;;;;8.70;8.50;;;20.50;49.80;;;;;;5093570;28;20802;-63
2023/04/11 12:52:28;;;;;;;8.90;8.70;;;20.50;49.80;;;;;;5093435;28;20446;-64